Time;durP1;ratioP1;P1;durP2;ratioP2;P2;SDS_P1;SDS_P2;PMS_P1;PMS_P2;Temp;Humidity;BMP_temperature;BMP_pressure;BME280_temperature;BME280_humidity;BME280_pressure;Samples;Min_cycle;Max_cycle;Signal;HPM_P1;HPM_P2
2021/09/17 00:01:06;;;;;;;9.27;5.40;;;;;;;14.14;76.11;100463.56;5103272;28;20055;-83
2021/09/17 00:03:35;;;;;;;8.35;5.28;;;;;;;14.05;76.37;100460.84;5102707;28;20051;-83
2021/09/17 00:06:02;;;;;;;5.93;4.90;;;;;;;13.97;76.37;100451.31;5104105;28;20059;-83
2021/09/17 00:08:30;;;;;;;7.95;5.05;;;;;;;13.99;76.09;100460.19;5102466;28;20059;-83
2021/09/17 00:10:57;;;;;;;7.40;5.50;;;;;;;13.99;76.02;100449.00;5103983;28;20056;-83
2021/09/17 00:13:25;;;;;;;11.68;6.90;;;;;;;13.97;76.44;100453.28;5101579;28;20059;-84
2021/09/17 00:15:52;;;;;;;10.05;6.15;;;;;;;13.97;76.13;100456.91;5102136;28;20060;-84
2021/09/17 00:18:20;;;;;;;7.95;6.63;;;;;;;13.96;76.34;100460.03;5103303;28;20056;-84
2021/09/17 00:20:48;;;;;;;7.95;5.80;;;;;;;13.92;76.42;100450.66;5088570;28;20052;-84
2021/09/17 00:23:16;;;;;;;11.63;8.20;;;;;;;13.85;76.58;100453.19;5093310;28;20047;-84
2021/09/17 00:25:44;;;;;;;10.15;6.20;;;;;;;13.85;76.80;100458.78;5103085;28;20062;-84
2021/09/17 00:28:11;;;;;;;8.45;5.72;;;;;;;13.79;76.72;100450.56;5103721;28;20060;-84
2021/09/17 00:30:41;;;;;;;8.82;6.07;;;;;;;13.77;76.88;100450.09;5102732;28;20059;-84
2021/09/17 00:33:08;;;;;;;;;;;;;;;13.71;76.57;100440.25;5102991;28;20052;-84
2021/09/17 00:35:36;;;;;;;9.52;6.35;;;;;;;13.72;76.74;100444.69;5103045;28;19920;-84
2021/09/17 00:38:05;;;;;;;8.82;6.72;;;;;;;13.74;76.56;100435.97;5104073;28;20052;-84
2021/09/17 00:40:33;;;;;;;9.85;6.90;;;;;;;13.75;76.83;100443.19;5104198;28;20059;-84
2021/09/17 00:43:01;;;;;;;9.00;7.07;;;;;;;13.73;77.02;100439.91;5103240;28;20055;-84
2021/09/17 00:45:28;;;;;;;9.15;6.65;;;;;;;13.70;76.92;100441.41;5103255;28;20060;-84
2021/09/17 00:47:56;;;;;;;8.98;6.57;;;;;;;13.68;76.73;100432.50;5103237;28;20060;-84
2021/09/17 00:50:24;;;;;;;11.57;7.05;;;;;;;13.64;76.68;100433.53;5102980;28;20059;-84
2021/09/17 00:52:52;;;;;;;9.85;6.63;;;;;;;13.58;77.12;100433.69;5102001;28;20056;-84
2021/09/17 00:55:21;;;;;;;10.67;6.30;;;;;;;13.58;76.87;100433.69;5102364;28;20393;-84
2021/09/17 00:57:49;;;;;;;9.38;6.55;;;;;;;13.51;76.77;100433.41;5103357;28;20052;-84
2021/09/17 01:00:17;;;;;;;9.50;7.10;;;;;;;13.47;77.17;100437.22;5103054;28;20048;-84
2021/09/17 01:02:45;;;;;;;9.93;7.20;;;;;;;13.45;77.08;100428.34;5101584;28;20503;-84
2021/09/17 01:05:13;;;;;;;7.95;7.15;;;;;;;13.42;77.63;100429.00;5102758;28;20485;-84
2021/09/17 01:07:41;;;;;;;13.25;8.25;;;;;;;13.45;78.14;100428.34;5101667;28;20493;-84
2021/09/17 01:10:09;;;;;;;10.20;7.53;;;;;;;13.49;78.16;100423.72;5101908;28;20059;-84
2021/09/17 01:12:39;;;;;;;11.63;7.43;;;;;;;13.54;78.35;100427.16;5101861;28;20056;-84
2021/09/17 01:15:08;;;;;;;11.30;6.60;;;;;;;13.59;78.31;100418.56;5106706;28;20056;-85
2021/09/17 01:17:36;;;;;;;;;;;;;;;13.59;78.23;100424.16;5106937;28;20059;-84
2021/09/17 01:20:04;;;;;;;10.35;6.78;;;;;;;13.68;78.29;100420.50;5096890;28;19927;-85
2021/09/17 01:22:33;;;;;;;9.10;6.63;;;;;;;13.75;79.02;100418.84;5084936;28;20064;-84
2021/09/17 01:25:01;;;;;;;8.32;6.05;;;;;;;13.83;78.80;100421.91;5101727;28;20048;-85
2021/09/17 01:27:28;;;;;;;10.40;6.82;;;;;;;13.88;78.36;100416.09;5107952;28;20056;-84
2021/09/17 01:29:57;;;;;;;9.30;6.50;;;;;;;13.96;78.92;100418.03;5106881;28;20056;-83
2021/09/17 01:32:25;;;;;;;10.05;6.05;;;;;;;14.05;78.26;100413.22;5107758;28;20051;-83
2021/09/17 01:34:52;;;;;;;10.23;6.22;;;;;;;14.13;78.49;100409.53;5106480;28;20055;-83
2021/09/17 01:37:19;;;;;;;7.82;6.32;;;;;;;14.21;78.28;100414.28;5106853;28;20056;-83
2021/09/17 01:39:48;;;;;;;10.65;6.93;;;;;;;14.30;77.97;100414.19;5106638;28;20066;-83
2021/09/17 01:42:15;;;;;;;9.32;6.82;;;;;;;14.35;77.50;100399.16;5106327;28;20052;-83
2021/09/17 01:44:43;;;;;;;7.90;6.78;;;;;;;14.37;77.34;100405.25;5105995;28;20052;-83
2021/09/17 01:47:10;;;;;;;7.72;6.05;;;;;;;14.47;77.24;100402.03;5106856;28;20056;-83
2021/09/17 01:49:38;;;;;;;8.65;6.40;;;;;;;14.48;77.42;100406.47;5107582;28;20052;-83
2021/09/17 01:52:08;;;;;;;7.97;6.47;;;;;;;14.51;77.36;100408.59;5091396;28;20057;-83
2021/09/17 01:54:36;;;;;;;9.23;6.28;;;;;;;14.58;76.97;100403.28;5098733;28;20060;-85
2021/09/17 01:57:06;;;;;;;8.27;6.50;;;;;;;14.64;77.05;100401.09;5106393;28;20405;-85
2021/09/17 01:59:34;;;;;;;8.30;6.80;;;;;;;14.70;76.69;100407.28;5104328;28;20059;-84
2021/09/17 02:02:02;;;;;;;8.90;6.43;;;;;;;14.73;76.49;100407.41;5104063;28;20056;-85
2021/09/17 02:04:29;;;;;;;9.40;6.18;;;;;;;14.76;76.67;100397.50;5106134;28;20052;-85
2021/09/17 02:06:56;;;;;;;10.02;6.20;;;;;;;14.81;76.30;100400.91;5106627;28;20059;-83
2021/09/17 02:09:24;;;;;;;8.70;7.03;;;;;;;14.82;75.92;100394.16;5106779;28;20485;-83
2021/09/17 02:11:51;;;;;;;10.38;7.35;;;;;;;14.82;76.20;100394.16;5105259;28;20058;-83
2021/09/17 02:14:20;;;;;;;8.85;6.30;;;;;;;14.87;76.01;100386.69;5105861;28;20063;-83
2021/09/17 02:16:47;;;;;;;8.73;6.72;;;;;;;14.90;75.79;100395.22;5105674;28;20146;-83
2021/09/17 02:19:15;;;;;;;9.95;6.18;;;;;;;14.92;75.88;100381.66;5104360;28;20052;-83
2021/09/17 02:21:48;;;;;;;11.38;6.65;;;;;;;14.97;75.86;100389.88;5086303;28;20068;-83
2021/09/17 02:24:15;;;;;;;8.60;6.32;;;;;;;14.99;75.96;100379.13;5094821;28;20048;-83
2021/09/17 02:26:43;;;;;;;9.13;6.88;;;;;;;15.00;76.25;100386.38;5107175;28;20060;-84
2021/09/17 02:29:11;;;;;;;12.02;7.20;;;;;;;15.04;75.83;100378.09;5105162;28;20056;-84
2021/09/17 02:31:39;;;;;;;8.90;6.88;;;;;;;15.09;75.35;100385.47;5105969;28;20052;-84
2021/09/17 02:34:07;;;;;;;8.93;6.55;;;;;;;15.11;75.68;100380.31;5104090;28;20048;-83
2021/09/17 02:36:34;;;;;;;10.88;7.07;;;;;;;15.04;75.77;100375.28;5103973;28;20583;-83
2021/09/17 02:39:02;;;;;;;11.65;7.75;;;;;;;15.01;75.50;100375.97;5104456;28;20059;-84
2021/09/17 02:41:29;;;;;;;9.68;7.22;;;;;;;15.09;75.44;100371.44;5104855;28;20056;-84
2021/09/17 02:43:56;;;;;;;9.60;7.18;;;;;;;15.07;75.56;100368.97;5104820;28;20063;-84
2021/09/17 02:46:24;;;;;;;10.75;7.10;;;;;;;15.14;75.07;100376.81;5104290;28;20063;-84
2021/09/17 02:48:52;;;;;;;8.90;7.35;;;;;;;15.12;75.51;100373.53;5103053;28;20056;-84
2021/09/17 02:51:21;;;;;;;10.07;6.97;;;;;;;15.13;75.41;100370.38;5104378;28;20071;-84
2021/09/17 02:53:49;;;;;;;10.63;7.07;;;;;;;15.18;75.41;100369.31;5103616;28;20059;-84
2021/09/17 02:56:16;;;;;;;12.32;7.63;;;;;;;15.22;75.29;100371.13;5104621;28;20443;-84
2021/09/17 02:58:44;;;;;;;8.65;7.40;;;;;;;15.23;75.21;100364.31;5103931;28;20056;-84
2021/09/17 03:01:11;;;;;;;9.63;7.68;;;;;;;15.25;75.02;100363.97;5086681;28;20424;-83
2021/09/17 03:03:39;;;;;;;11.02;8.35;;;;;;;15.24;75.20;100365.13;5105107;28;20052;-83
2021/09/17 03:06:08;;;;;;;11.25;8.40;;;;;;;15.25;75.27;100368.78;5104766;28;20056;-83
2021/09/17 03:08:35;;;;;;;10.50;7.38;;;;;;;15.28;75.62;100366.06;5105721;28;20074;-83
2021/09/17 03:11:03;;;;;;;9.63;7.90;;;;;;;15.33;74.90;100365.03;5106345;28;20056;-83
2021/09/17 03:13:30;;;;;;;10.32;7.75;;;;;;;15.33;74.77;100360.25;5105314;28;20056;-83
2021/09/17 03:15:58;;;;;;;11.57;8.40;;;;;;;15.31;74.94;100356.97;5104774;28;20063;-84
2021/09/17 03:18:25;;;;;;;10.18;8.30;;;;;;;15.32;74.92;100361.41;5103719;28;20527;-83
2021/09/17 03:20:52;;;;;;;12.63;8.45;;;;;;;15.37;74.97;100361.19;5103448;28;20059;-84
2021/09/17 03:23:21;;;;;;;11.00;7.70;;;;;;;15.42;74.87;100358.13;5103313;28;20764;-83
2021/09/17 03:25:49;;;;;;;10.87;8.17;;;;;;;15.48;74.77;100360.72;5103437;28;20059;-84
2021/09/17 03:28:17;;;;;;;11.32;8.07;;;;;;;15.49;74.53;100353.94;5102855;28;20450;-84
2021/09/17 03:30:44;;;;;;;10.93;8.65;;;;;;;15.52;74.58;100364.47;5102438;28;20060;-84
2021/09/17 03:33:11;;;;;;;12.27;8.43;;;;;;;15.54;74.90;100353.69;5102839;28;20059;-83
2021/09/17 03:35:39;;;;;;;12.38;7.90;;;;;;;15.56;75.12;100345.72;5103053;28;20063;-84
2021/09/17 03:38:07;;;;;;;10.77;9.23;;;;;;;15.61;74.44;100351.13;5103231;28;20496;-84
2021/09/17 03:40:37;;;;;;;11.45;8.10;;;;;;;15.62;74.45;100349.94;5102995;28;20064;-83
2021/09/17 03:43:05;;;;;;;10.93;7.90;;;;;;;15.59;74.66;100350.66;5091589;28;20143;-83
2021/09/17 03:45:35;;;;;;;11.15;7.78;;;;;;;15.63;74.59;100358.03;5102723;28;20067;-84
2021/09/17 03:48:06;;;;;;;12.43;9.43;;;;;;;15.65;74.43;100352.06;5104154;28;20472;-84
2021/09/17 03:50:34;;;;;;;9.52;8.13;;;;;;;15.63;74.53;100351.59;5104265;28;20442;-83
2021/09/17 03:53:01;;;;;;;10.60;8.45;;;;;;;15.62;74.97;100352.75;5105657;28;20063;-83
2021/09/17 03:55:28;;;;;;;10.55;8.32;;;;;;;15.64;75.12;100347.59;5105530;28;20075;-84
2021/09/17 03:57:57;;;;;;;12.68;9.35;;;;;;;15.61;74.85;100345.50;5104031;28;20052;-84
2021/09/17 04:00:25;;;;;;;11.00;8.45;;;;;;;15.61;74.81;100346.31;5104236;28;20083;-83
2021/09/17 04:02:52;;;;;;;13.73;9.25;;;;;;;15.70;74.49;100346.19;5103879;28;20060;-83
2021/09/17 04:05:20;;;;;;;13.25;9.15;;;;;;;15.75;74.29;100331.97;5104229;28;20051;-84
2021/09/17 04:07:47;;;;;;;11.68;8.43;;;;;;;15.75;74.27;100343.19;5103021;28;20052;-83
2021/09/17 04:10:18;;;;;;;10.82;8.55;;;;;;;15.79;74.33;100343.28;5102632;28;20070;-83
2021/09/17 04:12:50;;;;;;;10.30;8.15;;;;;;;15.80;74.30;100345.75;5102884;28;20125;-83
2021/09/17 04:15:18;;;;;;;11.18;9.48;;;;;;;15.69;74.68;100346.56;5102929;28;20055;-83
2021/09/17 04:17:46;;;;;;;14.50;10.57;;;;;;;15.50;75.41;100345.16;5103326;28;20511;-83
2021/09/17 04:20:14;;;;;;;14.27;9.80;;;;;;;15.67;74.63;100346.91;5103538;28;20465;-84
2021/09/17 04:22:42;;;;;;;13.60;9.88;;;;;;;15.74;74.53;100341.53;5102418;28;20052;-83
2021/09/17 04:25:10;;;;;;;10.40;9.20;;;;;;;15.78;74.31;100342.47;5102063;28;20056;-83
2021/09/17 04:27:40;;;;;;;15.23;10.40;;;;;;;15.79;74.18;100344.13;5102600;28;20060;-83
2021/09/17 04:30:09;;;;;;;13.93;9.43;;;;;;;15.78;74.67;100336.06;5102736;28;20059;-83
2021/09/17 04:32:38;;;;;;;13.70;11.00;;;;;;;15.81;74.51;100330.56;5102269;28;20063;-84
2021/09/17 04:35:07;;;;;;;13.80;10.50;;;;;;;15.82;74.46;100337.78;5102036;28;20052;-83
2021/09/17 04:37:39;;;;;;;15.65;10.23;;;;;;;15.76;74.54;100332.78;5103562;28;20496;-83
2021/09/17 04:40:08;;;;;;;13.18;9.88;;;;;;;15.80;74.35;100337.31;5104346;28;20059;-83
2021/09/17 04:42:35;;;;;;;14.18;10.07;;;;;;;15.85;74.44;100335.44;5104625;28;20056;-84
2021/09/17 04:45:03;;;;;;;13.50;11.05;;;;;;;15.87;74.24;100338.72;5103960;28;20059;-83
2021/09/17 04:47:31;;;;;;;13.23;10.15;;;;;;;15.87;74.16;100335.91;5103021;28;20067;-84
2021/09/17 04:50:02;;;;;;;13.68;9.95;;;;;;;15.74;74.72;100330.31;5106506;28;20516;-83
2021/09/17 04:52:30;;;;;;;15.80;11.27;;;;;;;15.83;74.48;100331.03;5103531;28;20052;-84
2021/09/17 04:54:59;;;;;;;15.25;10.50;;;;;;;15.75;74.61;100331.97;5103349;28;20052;-84
2021/09/17 04:57:26;;;;;;;12.13;9.98;;;;;;;15.86;74.24;100339.91;5104069;28;20075;-84
2021/09/17 04:59:54;;;;;;;14.48;10.77;;;;;;;15.89;73.70;100333.56;5104275;28;20048;-83
2021/09/17 05:02:22;;;;;;;15.85;11.15;;;;;;;15.90;73.53;100338.03;5103875;28;20067;-83
2021/09/17 05:04:49;;;;;;;14.50;11.00;;;;;;;15.83;74.42;100336.63;5103847;28;20052;-83
2021/09/17 05:07:18;;;;;;;15.75;10.73;;;;;;;15.82;74.57;100346.22;5103329;28;20063;-83
2021/09/17 05:09:45;;;;;;;18.97;13.27;;;;;;;15.80;74.35;100344.94;5105611;28;20059;-83
2021/09/17 05:12:13;;;;;;;16.15;12.30;;;;;;;15.83;74.16;100339.44;5098869;28;20056;-82
2021/09/17 05:14:40;;;;;;;16.60;12.40;;;;;;;15.87;73.85;100341.53;5103909;28;20067;-83
2021/09/17 05:17:09;;;;;;;16.25;11.60;;;;;;;15.92;73.90;100341.31;5104988;28;20055;-83
2021/09/17 05:19:39;;;;;;;16.88;11.05;;;;;;;15.93;73.68;100338.13;5100043;28;20416;-83
2021/09/17 05:22:07;;;;;;;16.10;11.90;;;;;;;15.95;73.78;100343.41;5105811;28;20059;-84
2021/09/17 05:24:36;;;;;;;18.15;13.05;;;;;;;15.92;73.87;100349.72;5105619;28;20056;-84
2021/09/17 05:36:40;;;;;;;17.02;12.35;;;;;;;16.03;73.92;100353.69;5100778;28;20044;-84
2021/09/17 05:39:08;;;;;;;17.50;13.82;;;;;;;16.04;73.63;100344.06;5105243;28;20059;-83
2021/09/17 05:41:39;;;;;;;20.25;13.57;;;;;;;16.07;73.40;100360.22;5104180;28;20078;-85
2021/09/17 05:44:07;;;;;;;18.30;13.60;;;;;;;15.89;74.39;100351.22;5105528;28;20056;-85
2021/09/17 05:46:34;;;;;;;17.15;12.63;;;;;;;16.01;74.20;100358.84;5107045;28;20063;-84
2021/09/17 05:49:04;;;;;;;16.23;13.38;;;;;;;16.02;74.05;100352.03;5106148;28;20052;-84
2021/09/17 05:51:31;;;;;;;20.83;13.90;;;;;;;15.87;74.62;100358.38;5093467;28;20053;-84
2021/09/17 05:53:59;;;;;;;20.73;13.82;;;;;;;16.06;74.19;100355.75;5085572;28;20056;-84
2021/09/17 05:56:26;;;;;;;19.67;13.50;;;;;;;15.98;74.33;100353.91;5091878;28;20052;-84
2021/09/17 05:58:56;;;;;;;19.90;15.52;;;;;;;15.62;76.33;100347.13;5103494;28;20052;-87
2021/09/17 06:01:23;;;;;;;18.70;13.45;;;;;;;15.84;75.90;100359.91;5106690;28;20063;-87
2021/09/17 06:03:51;;;;;;;19.17;13.27;;;;;;;15.75;76.12;100360.06;5106856;28;20513;-86
2021/09/17 06:06:19;;;;;;;19.08;14.77;;;;;;;15.98;75.19;100357.56;5107287;28;20056;-88
2021/09/17 06:08:48;;;;;;;21.98;15.18;;;;;;;15.96;75.34;100357.09;5100338;28;20410;-87
2021/09/17 06:11:15;;;;;;;24.45;17.15;;;;;;;16.22;74.07;100359.47;5106361;28;20048;-88
2021/09/17 06:13:43;;;;;;;20.65;15.70;;;;;;;16.38;73.30;100355.94;5105784;28;20048;-84
2021/09/17 06:16:12;;;;;;;23.58;16.13;;;;;;;16.53;72.90;100351.53;5105074;28;20056;-83
2021/09/17 06:18:40;;;;;;;19.05;15.10;;;;;;;16.68;72.39;100344.31;5107441;28;20056;-84
2021/09/17 06:21:07;;;;;;;21.50;16.42;;;;;;;16.71;72.02;100344.41;5107161;28;20059;-84
2021/09/17 06:23:35;;;;;;;21.15;15.75;;;;;;;16.84;72.25;100353.66;5107886;28;20067;-85
2021/09/17 06:26:02;;;;;;;21.15;16.08;;;;;;;16.92;71.71;100347.03;5107796;28;20417;-84
2021/09/17 06:28:30;;;;;;;20.55;15.07;;;;;;;17.04;71.39;100340.50;5107215;28;20052;-85
2021/09/17 06:30:57;;;;;;;19.85;15.02;;;;;;;17.22;71.14;100352.25;5106063;28;20059;-85
2021/09/17 06:33:26;;;;;;;23.10;16.70;;;;;;;17.11;71.36;100349.13;5107106;28;20056;-83
2021/09/17 06:35:53;;;;;;;22.15;16.35;;;;;;;17.25;70.86;100351.50;5110100;28;20058;-83
2021/09/17 06:38:21;;;;;;;28.60;20.77;;;;;;;17.01;71.15;100338.44;5133627;27;20055;-84
2021/09/17 06:40:50;;;;;;;26.88;19.27;;;;;;;17.19;70.61;100347.31;5149623;27;20051;-85
2021/09/17 06:43:18;;;;;;;24.58;17.73;;;;;;;17.42;69.96;100344.69;5140062;27;20060;-85
2021/09/17 06:45:47;;;;;;;24.17;18.25;;;;;;;17.36;70.24;100337.69;5130239;28;20058;-85
2021/09/17 06:48:17;;;;;;;24.67;19.02;;;;;;;17.34;70.29;100340.88;5127284;28;20059;-85
2021/09/17 06:50:46;;;;;;;23.52;17.60;;;;;;;17.56;69.78;100338.59;5121014;27;20052;-82
2021/09/17 06:53:16;;;;;;;24.42;18.35;;;;;;;17.68;69.67;100341.31;5113912;28;20429;-83
2021/09/17 06:55:44;;;;;;;23.60;18.25;;;;;;;17.80;69.58;100343.19;5125734;28;20060;-84
2021/09/17 06:59:42;;;;;;;25.45;19.33;;;;;;;17.92;68.74;100343.09;5148514;27;20724;-85
2021/09/17 07:02:10;;;;;;;26.95;19.55;;;;;;;18.03;68.57;100346.16;5120158;28;20412;-85
2021/09/17 07:04:40;;;;;;;26.13;20.08;;;;;;;18.09;68.43;100346.69;5124118;28;20047;-86
2021/09/17 07:07:07;;;;;;;23.80;18.58;;;;;;;18.21;68.46;100343.75;5113063;28;20056;-85
2021/09/17 07:09:35;;;;;;;20.70;16.65;;;;;;;18.34;68.44;100347.25;5124521;28;20058;-85
2021/09/17 07:12:02;;;;;;;24.10;17.85;;;;;;;18.44;67.94;100353.09;5118813;28;20404;-86
2021/09/17 07:14:31;;;;;;;22.63;17.88;;;;;;;18.58;67.88;100349.78;5107331;28;20048;-87
2021/09/17 07:17:00;;;;;;;23.15;17.98;;;;;;;18.67;67.34;100344.72;5112988;28;20051;-86
2021/09/17 07:19:31;;;;;;;27.40;19.48;;;;;;;18.85;66.77;100344.25;5116650;28;20044;-87
2021/09/17 07:21:59;;;;;;;21.17;17.98;;;;;;;18.94;66.55;100336.38;5116894;28;20052;-87
2021/09/17 07:24:26;;;;;;;26.00;18.55;;;;;;;19.01;66.21;100338.53;5108824;28;20055;-86
2021/09/17 07:26:54;;;;;;;24.95;18.88;;;;;;;19.14;66.32;100341.97;5121604;28;20054;-85
2021/09/17 07:29:21;;;;;;;27.48;21.13;;;;;;;19.23;65.54;100334.06;5126181;28;20074;-86
2021/09/17 07:31:48;;;;;;;29.55;20.95;;;;;;;19.38;65.07;100332.28;5119331;28;20397;-86
2021/09/17 07:34:17;;;;;;;27.13;20.38;;;;;;;19.59;64.68;100323.34;5111642;28;20059;-85
2021/09/17 07:39:26;;;;;;;29.02;22.48;;;;;;;19.86;63.92;100336.34;5081668;22;20073;-59
2021/09/17 07:41:53;;;;;;;28.52;22.23;;;;;;;19.85;63.95;100337.53;5050603;28;20061;-60
2021/09/17 07:44:21;;;;;;;29.27;23.05;;;;;;;19.72;63.93;100330.47;5048037;28;20594;-60
2021/09/17 07:46:49;;;;;;;28.85;21.98;;;;;;;19.70;64.12;100329.16;5066597;28;20048;-62
2021/09/17 07:49:17;;;;;;;28.02;23.30;;;;;;;19.74;64.02;100342.22;5063708;28;20473;-59
2021/09/17 07:51:45;;;;;;;28.48;19.85;;;;;;;21.48;59.25;100330.56;5053539;28;20052;-59
2021/09/17 07:54:12;;;;;;;27.25;20.77;;;;;;;23.13;54.27;100336.25;5060555;28;20056;-60
2021/09/17 07:56:40;;;;;;;25.17;18.83;;;;;;;24.58;50.43;100327.09;5051759;28;20057;-60
2021/09/17 07:59:07;;;;;;;24.38;19.23;;;;;;;26.00;46.77;100326.47;5066844;28;20049;-60
2021/09/17 08:01:34;;;;;;;25.80;19.92;;;;;;;26.52;45.10;100322.59;5058382;28;20054;-60
2021/09/17 08:04:02;;;;;;;24.92;20.65;;;;;;;27.08;43.23;100334.47;5050403;28;20056;-60
2021/09/17 08:06:30;;;;;;;28.08;21.23;;;;;;;27.62;41.88;100333.66;5047187;28;20512;-60
2021/09/17 08:09:00;;;;;;;26.33;22.00;;;;;;;27.66;40.69;100343.00;5045537;28;20049;-60
2021/09/17 08:11:27;;;;;;;26.85;21.88;;;;;;;28.33;39.76;100337.25;5033676;28;20053;-60
2021/09/17 08:13:55;;;;;;;27.05;22.90;;;;;;;28.81;38.33;100332.19;5031255;28;20053;-60
2021/09/17 08:16:22;;;;;;;26.40;21.63;;;;;;;30.23;36.53;100331.91;5032008;28;20049;-60
2021/09/17 08:18:50;;;;;;;24.35;21.55;;;;;;;31.71;33.45;100337.63;5036822;28;20050;-62
2021/09/17 08:21:17;;;;;;;25.00;21.88;;;;;;;32.66;31.49;100336.69;5042422;28;20064;-61
2021/09/17 08:23:46;;;;;;;24.80;22.20;;;;;;;32.91;31.01;100334.91;5036180;28;20504;-61
2021/09/17 08:26:13;;;;;;;;;;;;;;;33.59;30.11;100334.22;5035536;28;20053;-61
2021/09/17 08:28:40;;;;;;;21.95;19.52;;;;;;;34.89;27.88;100324.25;5034841;28;19936;-61
2021/09/17 08:31:08;;;;;;;19.30;17.27;;;;;;;35.09;27.09;100327.41;5043998;28;20056;-61
2021/09/17 08:33:35;;;;;;;20.10;17.92;;;;;;;34.50;27.53;100316.13;5053497;28;20132;-61
2021/09/17 08:36:02;;;;;;;18.17;16.38;;;;;;;35.29;26.69;100320.25;5030253;28;20057;-61
2021/09/17 08:38:32;;;;;;;18.13;15.30;;;;;;;34.80;27.44;100327.16;5041783;28;20053;-61
2021/09/17 08:41:01;;;;;;;17.95;16.15;;;;;;;34.71;27.33;100322.22;5038741;28;20049;-61
2021/09/17 08:43:29;;;;;;;17.92;15.95;;;;;;;35.21;27.07;100313.22;5030455;28;20050;-61
2021/09/17 08:45:56;;;;;;;16.80;14.95;;;;;;;35.25;27.17;100316.72;5032869;28;20509;-61
2021/09/17 08:48:27;;;;;;;17.98;16.10;;;;;;;35.12;27.60;100320.63;5029853;28;20054;-61
2021/09/17 08:50:55;;;;;;;19.90;17.75;;;;;;;34.86;26.76;100316.53;5039076;28;20048;-61
2021/09/17 08:53:24;;;;;;;19.45;17.30;;;;;;;34.64;27.09;100314.69;5033230;28;20057;-61
2021/09/17 08:55:52;;;;;;;18.27;16.35;;;;;;;34.03;28.61;100314.53;5031537;28;20064;-61
2021/09/17 08:58:20;;;;;;;18.73;16.65;;;;;;;33.45;29.53;100312.50;5028832;28;20060;-61
2021/09/17 09:00:47;;;;;;;;;;;;;;;33.16;29.77;100313.72;5037356;28;20045;-61
2021/09/17 09:03:27;;;;;;;18.05;16.15;;;;;;;32.85;29.78;100319.47;5029471;28;19932;-61
2021/09/17 09:05:55;;;;;;;17.25;15.23;;;;;;;32.29;30.94;100321.97;5036215;28;20492;-61
2021/09/17 09:08:24;;;;;;;18.90;16.90;;;;;;;32.02;30.85;100318.88;5029512;28;20053;-61
2021/09/17 09:10:52;;;;;;;19.75;17.67;;;;;;;30.71;32.77;100309.97;5037889;28;20068;-60
2021/09/17 09:13:21;;;;;;;18.67;16.70;;;;;;;31.15;32.49;100310.25;5032093;28;20458;-61
2021/09/17 09:15:49;;;;;;;17.77;15.88;;;;;;;32.34;30.59;100312.75;5029941;28;20413;-61
2021/09/17 09:18:18;;;;;;;18.02;16.13;;;;;;;33.01;29.30;100313.47;5030765;28;20053;-61
2021/09/17 09:20:47;;;;;;;16.05;14.35;;;;;;;32.38;30.51;100314.66;5040399;28;20048;-61
2021/09/17 09:23:17;;;;;;;18.08;16.15;;;;;;;31.89;31.55;100316.00;5037935;28;20060;-61
2021/09/17 09:25:57;;;;;;;19.77;16.38;;;;;;;31.78;31.03;100316.41;5035262;28;20075;-60
2021/09/17 09:28:30;;;;;;;16.55;14.68;;;;;;;32.39;30.15;100301.88;5028910;28;20058;-61
2021/09/17 09:30:59;;;;;;;17.35;15.63;;;;;;;31.79;30.90;100305.69;5033987;28;20057;-60
2021/09/17 09:33:34;;;;;;;18.27;14.93;;;;;;;32.24;30.32;100308.19;5035337;28;20053;-61
2021/09/17 09:36:05;;;;;;;15.70;14.02;;;;;;;31.95;31.04;100312.06;5025191;28;20053;-60
2021/09/17 09:38:34;;;;;;;15.65;13.98;;;;;;;31.01;32.78;100313.59;5034366;28;20386;-60
2021/09/17 09:41:04;;;;;;;15.35;13.75;;;;;;;31.21;32.19;100312.56;5037212;28;20417;-60
2021/09/17 09:43:35;;;;;;;15.25;13.75;;;;;;;30.96;33.04;100317.06;5029361;28;20049;-61
2021/09/17 09:46:25;;;;;;;16.67;14.90;;;;;;;30.34;33.74;100318.09;5029379;28;20065;-61
2021/09/17 09:49:12;;;;;;;15.65;14.05;;;;;;;29.88;34.91;100323.03;5041443;28;20063;-60
2021/09/17 09:51:41;;;;;;;17.15;15.35;;;;;;;30.74;33.24;100311.94;5040102;28;20057;-61
2021/09/17 09:54:11;;;;;;;15.88;14.05;;;;;;;32.85;30.85;100316.59;5027563;28;20386;-60
2021/09/17 09:56:38;;;;;;;15.30;13.70;;;;;;;33.20;29.38;100313.56;5048514;28;20128;-60
2021/09/17 09:59:08;;;;;;;15.60;13.98;;;;;;;32.27;30.43;100318.75;5032929;28;20049;-61
2021/09/17 10:01:38;;;;;;;15.25;13.65;;;;;;;31.00;31.57;100309.13;5042106;28;20056;-61
2021/09/17 10:04:07;;;;;;;13.10;11.88;;;;;;;31.09;31.74;100309.22;5033844;28;20054;-61
2021/09/17 10:06:37;;;;;;;11.63;10.45;;;;;;;31.20;31.92;100310.94;5033731;28;20057;-61
2021/09/17 10:09:06;;;;;;;11.52;10.32;;;;;;;31.51;30.81;100309.09;5029522;28;20045;-60
2021/09/17 10:11:34;;;;;;;10.77;9.68;;;;;;;31.44;30.50;100305.66;5037917;28;20052;-60
2021/09/17 10:14:04;;;;;;;12.10;10.97;;;;;;;31.01;31.02;100307.84;5037779;28;20065;-60
2021/09/17 10:16:34;;;;;;;12.57;10.50;;;;;;;30.40;32.44;100315.44;5035796;28;20061;-67
2021/09/17 10:19:02;;;;;;;12.95;11.25;;;;;;;29.72;34.04;100314.44;5037737;28;20053;-65
2021/09/17 10:21:51;;;;;;;12.15;10.95;;;;;;;28.94;34.50;100298.69;5040566;28;20396;-66
2021/09/17 10:24:35;;;;;;;;;;;;;;;28.37;35.58;100313.44;5038253;28;20057;-64
2021/09/17 10:27:05;;;;;;;11.73;10.52;;;;;;;27.93;37.60;100313.50;5035634;28;19921;-64
2021/09/17 10:29:34;;;;;;;15.20;12.63;;;;;;;27.50;37.71;100312.19;5027636;28;20156;-59
2021/09/17 10:32:05;;;;;;;16.13;14.48;;;;;;;27.03;39.36;100325.59;5029794;28;20053;-59
2021/09/17 10:34:35;;;;;;;16.05;14.43;;;;;;;26.64;39.60;100316.34;5029483;28;20053;-57
2021/09/17 10:37:05;;;;;;;16.70;14.88;;;;;;;26.52;40.37;100319.72;5028585;28;20436;-59
2021/09/17 10:39:32;;;;;;;16.17;14.43;;;;;;;26.51;40.58;100318.94;5035698;28;20057;-59
2021/09/17 10:42:11;;;;;;;17.52;15.40;;;;;;;26.50;40.38;100313.63;5034428;28;20049;-59
2021/09/17 10:45:15;;;;;;;17.95;15.00;;;;;;;26.66;40.62;100319.56;5032102;28;20064;-59
2021/09/17 10:48:00;;;;;;;17.65;15.55;;;;;;;26.83;40.20;100317.69;5031306;28;20045;-58
2021/09/17 10:50:47;;;;;;;17.75;15.95;;;;;;;26.79;40.19;100313.28;5028711;28;20053;-59
2021/09/17 10:53:16;;;;;;;17.67;15.88;;;;;;;27.00;39.62;100304.38;5030775;28;20049;-58
2021/09/17 10:56:04;;;;;;;18.98;16.90;;;;;;;27.04;39.59;100308.00;5031777;28;20045;-58
2021/09/17 10:58:33;;;;;;;18.88;16.88;;;;;;;27.17;39.22;100310.25;5032560;28;20049;-59
2021/09/17 11:01:04;;;;;;;20.65;16.58;;;;;;;27.11;39.01;100307.91;5029200;28;20053;-57
2021/09/17 11:04:00;;;;;;;18.35;16.45;;;;;;;27.10;40.54;100309.13;5029730;28;20128;-58
2021/09/17 11:06:29;;;;;;;17.33;15.25;;;;;;;27.17;39.54;100310.25;5035487;28;20512;-59
2021/09/17 11:08:59;;;;;;;17.40;15.30;;;;;;;27.23;39.13;100308.56;5033429;28;20045;-58
2021/09/17 11:11:29;;;;;;;18.60;16.60;;;;;;;27.14;39.30;100303.38;5033955;28;20049;-58
2021/09/17 11:13:59;;;;;;;18.23;15.85;;;;;;;26.90;39.81;100311.91;5031512;28;20378;-59
2021/09/17 11:16:28;;;;;;;19.55;16.00;;;;;;;26.63;40.31;100303.31;5026112;28;20397;-58
2021/09/17 11:19:00;;;;;;;19.90;16.35;;;;;;;26.62;40.07;100306.59;5029032;28;20064;-59
2021/09/17 11:21:31;;;;;;;19.50;16.73;;;;;;;26.23;41.46;100302.97;5028459;28;20049;-59
2021/09/17 11:23:59;;;;;;;19.73;17.38;;;;;;;25.80;41.87;100305.47;5043119;28;20080;-59
2021/09/17 11:26:28;;;;;;;18.92;16.67;;;;;;;25.56;42.29;100304.47;5045053;28;20134;-59
2021/09/17 11:29:00;;;;;;;19.33;17.15;;;;;;;25.15;43.55;100302.34;5034112;28;20056;-59
2021/09/17 11:31:31;;;;;;;19.42;16.52;;;;;;;25.04;44.44;100300.38;5032152;28;20402;-58
2021/09/17 11:34:00;;;;;;;18.17;15.90;;;;;;;24.89;44.69;100305.38;5034088;28;20057;-59
2021/09/17 11:36:42;;;;;;;19.00;17.05;;;;;;;24.87;44.72;100312.72;5033845;28;20045;-57